sensor_id;sensor_type;location;lat;lon;timestamp;pressure;altitude;pressure_sealevel;temperature;humidity
64853;BME280;56050;55.558;-4.644;2022-12-18T00:02:20;101593.59;;;4.36;68.62
64853;BME280;56050;55.558;-4.644;2022-12-18T00:04:47;101600.81;;;4.36;68.67
64853;BME280;56050;55.558;-4.644;2022-12-18T00:07:12;101597.34;;;4.35;68.50
64853;BME280;56050;55.558;-4.644;2022-12-18T00:09:38;101606.44;;;4.34;68.63
64853;BME280;56050;55.558;-4.644;2022-12-18T00:12:03;101598.78;;;4.33;68.64
64853;BME280;56050;55.558;-4.644;2022-12-18T00:14:29;101604.41;;;4.31;68.70
64853;BME280;56050;55.558;-4.644;2022-12-18T00:16:54;101597.53;;;4.30;68.63
64853;BME280;56050;55.558;-4.644;2022-12-18T00:19:20;101601.63;;;4.28;68.77
64853;BME280;56050;55.558;-4.644;2022-12-18T00:21:46;101601.94;;;4.26;68.71
64853;BME280;56050;55.558;-4.644;2022-12-18T00:24:11;101603.06;;;4.25;68.58
64853;BME280;56050;55.558;-4.644;2022-12-18T00:26:39;101603.81;;;4.26;68.79
64853;BME280;56050;55.558;-4.644;2022-12-18T00:29:07;101606.50;;;4.26;68.82
64853;BME280;56050;55.558;-4.644;2022-12-18T00:31:33;101603.53;;;4.27;68.76
64853;BME280;56050;55.558;-4.644;2022-12-18T00:33:59;101605.84;;;4.29;68.76
64853;BME280;56050;55.558;-4.644;2022-12-18T00:36:27;101609.31;;;4.29;68.77
64853;BME280;56050;55.558;-4.644;2022-12-18T00:38:54;101605.53;;;4.30;68.81
64853;BME280;56050;55.558;-4.644;2022-12-18T00:41:20;101614.00;;;4.32;68.85
64853;BME280;56050;55.558;-4.644;2022-12-18T00:44:06;101612.56;;;4.35;68.80
64853;BME280;56050;55.558;-4.644;2022-12-18T00:46:32;101602.34;;;4.37;68.86
64853;BME280;56050;55.558;-4.644;2022-12-18T00:48:58;101603.59;;;4.39;68.73
64853;BME280;56050;55.558;-4.644;2022-12-18T00:51:24;101600.63;;;4.41;68.93
64853;BME280;56050;55.558;-4.644;2022-12-18T00:53:50;101595.72;;;4.43;68.90
64853;BME280;56050;55.558;-4.644;2022-12-18T00:56:15;101597.31;;;4.44;68.85
64853;BME280;56050;55.558;-4.644;2022-12-18T00:58:41;101591.00;;;4.48;68.81
64853;BME280;56050;55.558;-4.644;2022-12-18T01:01:06;101595.22;;;4.49;68.63
64853;BME280;56050;55.558;-4.644;2022-12-18T01:03:32;101587.22;;;4.49;68.72
64853;BME280;56050;55.558;-4.644;2022-12-18T01:05:58;101578.09;;;4.50;68.70
64853;BME280;56050;55.558;-4.644;2022-12-18T01:08:23;101576.22;;;4.51;68.93
64853;BME280;56050;55.558;-4.644;2022-12-18T01:10:51;101581.25;;;4.52;68.83
64853;BME280;56050;55.558;-4.644;2022-12-18T01:13:16;101572.91;;;4.54;68.88
64853;BME280;56050;55.558;-4.644;2022-12-18T01:15:50;101575.28;;;4.55;68.98
64853;BME280;56050;55.558;-4.644;2022-12-18T01:18:16;101568.50;;;4.58;68.98
64853;BME280;56050;55.558;-4.644;2022-12-18T01:20:41;101559.38;;;4.59;68.75
64853;BME280;56050;55.558;-4.644;2022-12-18T01:23:07;101555.28;;;4.61;68.89
64853;BME280;56050;55.558;-4.644;2022-12-18T01:25:35;101557.19;;;4.61;68.87
64853;BME280;56050;55.558;-4.644;2022-12-18T01:28:00;101556.06;;;4.62;69.11
64853;BME280;56050;55.558;-4.644;2022-12-18T01:30:26;101553.38;;;4.62;68.98
64853;BME280;56050;55.558;-4.644;2022-12-18T01:32:52;101556.06;;;4.62;69.09
64853;BME280;56050;55.558;-4.644;2022-12-18T01:35:18;101555.75;;;4.63;69.10
64853;BME280;56050;55.558;-4.644;2022-12-18T01:37:43;101553.84;;;4.64;69.10
64853;BME280;56050;55.558;-4.644;2022-12-18T01:40:09;101559.66;;;4.66;69.09
64853;BME280;56050;55.558;-4.644;2022-12-18T01:42:34;101552.88;;;4.68;69.18
64853;BME280;56050;55.558;-4.644;2022-12-18T01:45:05;101556.78;;;4.71;69.11
64853;BME280;56050;55.558;-4.644;2022-12-18T01:50:21;101556.44;;;4.72;69.04
64853;BME280;56050;55.558;-4.644;2022-12-18T01:53:18;101556.91;;;4.74;68.93
64853;BME280;56050;55.558;-4.644;2022-12-18T01:55:55;101552.34;;;4.75;69.03
64853;BME280;56050;55.558;-4.644;2022-12-18T02:01:07;101557.69;;;4.75;68.95
64853;BME280;56050;55.558;-4.644;2022-12-18T02:03:33;101565.38;;;4.77;69.01
64853;BME280;56050;55.558;-4.644;2022-12-18T02:07:07;101560.03;;;4.77;69.03
64853;BME280;56050;55.558;-4.644;2022-12-18T02:09:12;101555.78;;;4.75;68.87
64853;BME280;56050;55.558;-4.644;2022-12-18T02:12:33;101563.34;;;4.73;69.02
64853;BME280;56050;55.558;-4.644;2022-12-18T02:14:38;101555.34;;;4.73;69.02
64853;BME280;56050;55.558;-4.644;2022-12-18T02:17:35;101555.69;;;4.72;69.08
64853;BME280;56050;55.558;-4.644;2022-12-18T02:28:00;101550.94;;;4.78;69.24
64853;BME280;56050;55.558;-4.644;2022-12-18T02:30:31;101548.38;;;4.81;69.30
64853;BME280;56050;55.558;-4.644;2022-12-18T02:32:57;101544.28;;;4.84;69.53
64853;BME280;56050;55.558;-4.644;2022-12-18T02:35:27;101539.06;;;4.87;69.40
64853;BME280;56050;55.558;-4.644;2022-12-18T02:37:55;101537.97;;;4.88;69.26
64853;BME280;56050;55.558;-4.644;2022-12-18T02:40:24;101541.09;;;4.90;69.29
64853;BME280;56050;55.558;-4.644;2022-12-18T02:42:51;101535.41;;;4.92;69.50
64853;BME280;56050;55.558;-4.644;2022-12-18T02:45:16;101530.97;;;4.96;69.35
64853;BME280;56050;55.558;-4.644;2022-12-18T02:47:44;101532.09;;;4.95;69.37
64853;BME280;56050;55.558;-4.644;2022-12-18T02:50:36;101526.75;;;4.95;69.66
64853;BME280;56050;55.558;-4.644;2022-12-18T02:53:26;101521.09;;;4.96;69.68
64853;BME280;56050;55.558;-4.644;2022-12-18T02:56:01;101515.88;;;5.00;69.60
64853;BME280;56050;55.558;-4.644;2022-12-18T02:58:49;101516.97;;;4.99;69.66
64853;BME280;56050;55.558;-4.644;2022-12-18T03:01:29;101513.22;;;5.00;69.43
64853;BME280;56050;55.558;-4.644;2022-12-18T03:04:08;101512.09;;;5.01;69.55
64853;BME280;56050;55.558;-4.644;2022-12-18T03:06:37;101504.53;;;5.03;69.39
64853;BME280;56050;55.558;-4.644;2022-12-18T03:09:09;101492.28;;;5.02;69.49
64853;BME280;56050;55.558;-4.644;2022-12-18T03:11:39;101494.53;;;5.00;69.50
64853;BME280;56050;55.558;-4.644;2022-12-18T03:14:28;101499.06;;;4.99;69.58
64853;BME280;56050;55.558;-4.644;2022-12-18T03:16:58;101500.97;;;4.99;69.61
64853;BME280;56050;55.558;-4.644;2022-12-18T03:19:27;101500.97;;;4.99;69.69
64853;BME280;56050;55.558;-4.644;2022-12-18T03:21:56;101489.94;;;5.00;69.73
64853;BME280;56050;55.558;-4.644;2022-12-18T03:24:24;101491.50;;;5.01;69.74
64853;BME280;56050;55.558;-4.644;2022-12-18T03:26:54;101486.97;;;5.02;69.73
64853;BME280;56050;55.558;-4.644;2022-12-18T03:29:33;101492.28;;;5.02;69.87
64853;BME280;56050;55.558;-4.644;2022-12-18T03:32:10;101496.84;;;5.01;69.86
64853;BME280;56050;55.558;-4.644;2022-12-18T03:34:39;101491.94;;;5.03;69.79
64853;BME280;56050;55.558;-4.644;2022-12-18T03:37:06;101484.72;;;5.04;69.96
64853;BME280;56050;55.558;-4.644;2022-12-18T03:39:33;101477.50;;;5.04;69.83
64853;BME280;56050;55.558;-4.644;2022-12-18T03:42:22;101469.94;;;5.06;69.91
64853;BME280;56050;55.558;-4.644;2022-12-18T03:47:53;101449.34;;;5.07;69.98
64853;BME280;56050;55.558;-4.644;2022-12-18T03:50:27;101436.78;;;5.07;69.83
64853;BME280;56050;55.558;-4.644;2022-12-18T03:53:02;101439.78;;;5.06;69.71
64853;BME280;56050;55.558;-4.644;2022-12-18T03:55:33;101439.69;;;5.02;69.76
64853;BME280;56050;55.558;-4.644;2022-12-18T03:58:01;101443.09;;;5.03;69.72
64853;BME280;56050;55.558;-4.644;2022-12-18T04:00:28;101434.34;;;5.02;69.85
64853;BME280;56050;55.558;-4.644;2022-12-18T04:02:57;101424.41;;;5.03;70.10
64853;BME280;56050;55.558;-4.644;2022-12-18T04:05:26;101426.78;;;5.04;70.17
64853;BME280;56050;55.558;-4.644;2022-12-18T04:07:54;101421.75;;;5.03;70.31
64853;BME280;56050;55.558;-4.644;2022-12-18T04:10:21;101430.88;;;5.02;70.17
64853;BME280;56050;55.558;-4.644;2022-12-18T04:12:46;101432.78;;;5.01;70.54
64853;BME280;56050;55.558;-4.644;2022-12-18T04:15:13;101437.75;;;5.03;70.40
64853;BME280;56050;55.558;-4.644;2022-12-18T04:17:42;101437.44;;;5.04;70.65
64853;BME280;56050;55.558;-4.644;2022-12-18T04:20:09;101444.03;;;5.07;70.46
64853;BME280;56050;55.558;-4.644;2022-12-18T04:22:34;101434.91;;;5.08;70.40
64853;BME280;56050;55.558;-4.644;2022-12-18T04:25:00;101429.09;;;5.06;70.21
64853;BME280;56050;55.558;-4.644;2022-12-18T04:27:25;101427.22;;;5.06;70.25
64853;BME280;56050;55.558;-4.644;2022-12-18T04:29:51;101434.78;;;5.04;70.17
64853;BME280;56050;55.558;-4.644;2022-12-18T04:32:16;101431.66;;;5.02;70.07
64853;BME280;56050;55.558;-4.644;2022-12-18T04:34:41;101436.66;;;5.04;70.15
64853;BME280;56050;55.558;-4.644;2022-12-18T04:37:07;101429.88;;;5.06;70.31
64853;BME280;56050;55.558;-4.644;2022-12-18T04:39:33;101413.63;;;5.11;70.11
64853;BME280;56050;55.558;-4.644;2022-12-18T04:41:58;101411.09;;;5.15;70.05
64853;BME280;56050;55.558;-4.644;2022-12-18T04:44:23;101416.13;;;5.16;70.02
64853;BME280;56050;55.558;-4.644;2022-12-18T04:46:49;101391.75;;;5.18;70.30
64853;BME280;56050;55.558;-4.644;2022-12-18T04:49:14;101373.91;;;5.22;70.27
64853;BME280;56050;55.558;-4.644;2022-12-18T04:51:40;101369.38;;;5.22;70.23
64853;BME280;56050;55.558;-4.644;2022-12-18T04:54:05;101376.28;;;5.23;70.40
64853;BME280;56050;55.558;-4.644;2022-12-18T04:56:31;101367.59;;;5.26;70.49
64853;BME280;56050;55.558;-4.644;2022-12-18T04:58:57;101365.38;;;5.28;70.72
64853;BME280;56050;55.558;-4.644;2022-12-18T05:01:22;101349.03;;;5.30;70.53
64853;BME280;56050;55.558;-4.644;2022-12-18T05:03:48;101336.88;;;5.32;70.62
64853;BME280;56050;55.558;-4.644;2022-12-18T05:06:13;101333.19;;;5.37;70.77
64853;BME280;56050;55.558;-4.644;2022-12-18T05:08:39;101330.53;;;5.37;70.65
64853;BME280;56050;55.558;-4.644;2022-12-18T05:11:10;101328.19;;;5.36;70.53
64853;BME280;56050;55.558;-4.644;2022-12-18T05:13:36;101342.31;;;5.36;70.49
64853;BME280;56050;55.558;-4.644;2022-12-18T05:16:03;101340.31;;;5.33;70.58
64853;BME280;56050;55.558;-4.644;2022-12-18T05:18:30;101323.84;;;5.31;70.74
64853;BME280;56050;55.558;-4.644;2022-12-18T05:20:55;101329.63;;;5.33;70.69
64853;BME280;56050;55.558;-4.644;2022-12-18T05:23:21;101328.19;;;5.36;70.55
64853;BME280;56050;55.558;-4.644;2022-12-18T05:26:00;101333.19;;;5.37;70.63
64853;BME280;56050;55.558;-4.644;2022-12-18T05:28:28;101326.75;;;5.38;70.80
64853;BME280;56050;55.558;-4.644;2022-12-18T05:30:55;101326.41;;;5.40;70.69
64853;BME280;56050;55.558;-4.644;2022-12-18T05:33:23;101326.84;;;5.42;70.72
64853;BME280;56050;55.558;-4.644;2022-12-18T05:35:59;101334.84;;;5.42;70.68
64853;BME280;56050;55.558;-4.644;2022-12-18T05:38:26;101364.69;;;5.44;70.73
64853;BME280;56050;55.558;-4.644;2022-12-18T05:40:52;101352.56;;;5.46;70.78
64853;BME280;56050;55.558;-4.644;2022-12-18T05:43:19;101331.63;;;5.48;70.92
64853;BME280;56050;55.558;-4.644;2022-12-18T05:45:44;101350.44;;;5.52;70.84
64853;BME280;56050;55.558;-4.644;2022-12-18T05:48:10;101349.66;;;5.51;70.72
64853;BME280;56050;55.558;-4.644;2022-12-18T05:50:38;101345.53;;;5.54;70.78
64853;BME280;56050;55.558;-4.644;2022-12-18T05:53:05;101346.75;;;5.56;70.78
64853;BME280;56050;55.558;-4.644;2022-12-18T05:55:33;101346.50;;;5.61;70.56
64853;BME280;56050;55.558;-4.644;2022-12-18T05:57:59;101360.78;;;5.65;70.69
64853;BME280;56050;55.558;-4.644;2022-12-18T06:00:25;101367.44;;;5.71;70.63
64853;BME280;56050;55.558;-4.644;2022-12-18T06:02:50;101365.53;;;5.72;70.51
64853;BME280;56050;55.558;-4.644;2022-12-18T06:05:16;101354.94;;;5.75;70.52
64853;BME280;56050;55.558;-4.644;2022-12-18T06:07:41;101335.47;;;5.75;70.30
64853;BME280;56050;55.558;-4.644;2022-12-18T06:10:06;101345.03;;;5.76;70.43
64853;BME280;56050;55.558;-4.644;2022-12-18T06:12:32;101338.25;;;5.78;70.65
64853;BME280;56050;55.558;-4.644;2022-12-18T06:14:59;101328.44;;;5.82;70.70
64853;BME280;56050;55.558;-4.644;2022-12-18T06:17:27;101337.13;;;5.91;70.83
64853;BME280;56050;55.558;-4.644;2022-12-18T06:19:54;101348.03;;;5.99;70.80
64853;BME280;56050;55.558;-4.644;2022-12-18T06:22:19;101335.28;;;6.08;70.63
64853;BME280;56050;55.558;-4.644;2022-12-18T06:24:45;101330.44;;;6.13;70.62
64853;BME280;56050;55.558;-4.644;2022-12-18T06:27:10;101327.22;;;6.20;70.46
64853;BME280;56050;55.558;-4.644;2022-12-18T06:29:35;101327.63;;;6.22;70.61
64853;BME280;56050;55.558;-4.644;2022-12-18T06:32:00;101338.78;;;6.24;70.63
64853;BME280;56050;55.558;-4.644;2022-12-18T06:34:26;101333.44;;;6.24;70.62
64853;BME280;56050;55.558;-4.644;2022-12-18T06:36:51;101329.19;;;6.23;70.51
64853;BME280;56050;55.558;-4.644;2022-12-18T06:39:17;101317.38;;;6.24;70.45
64853;BME280;56050;55.558;-4.644;2022-12-18T06:41:42;101316.19;;;6.21;70.48
64853;BME280;56050;55.558;-4.644;2022-12-18T06:44:07;101310.84;;;6.21;70.56
64853;BME280;56050;55.558;-4.644;2022-12-18T06:46:33;101309.25;;;6.20;70.36
64853;BME280;56050;55.558;-4.644;2022-12-18T06:48:58;101297.00;;;6.19;70.51
64853;BME280;56050;55.558;-4.644;2022-12-18T06:51:24;101282.84;;;6.19;70.35
64853;BME280;56050;55.558;-4.644;2022-12-18T06:53:49;101275.94;;;6.18;70.21
64853;BME280;56050;55.558;-4.644;2022-12-18T06:56:14;101263.69;;;6.17;70.19
64853;BME280;56050;55.558;-4.644;2022-12-18T06:58:40;101253.66;;;6.14;70.27
64853;BME280;56050;55.558;-4.644;2022-12-18T07:01:06;101260.16;;;6.13;70.47
64853;BME280;56050;55.558;-4.644;2022-12-18T07:03:32;101253.94;;;6.09;70.57
64853;BME280;56050;55.558;-4.644;2022-12-18T07:05:57;101248.16;;;6.07;70.57
64853;BME280;56050;55.558;-4.644;2022-12-18T07:08:23;101240.13;;;6.07;70.74
64853;BME280;56050;55.558;-4.644;2022-12-18T07:10:48;101228.66;;;6.06;70.65
64853;BME280;56050;55.558;-4.644;2022-12-18T07:13:18;101227.44;;;6.04;70.70
64853;BME280;56050;55.558;-4.644;2022-12-18T07:15:43;101218.97;;;6.02;70.58
64853;BME280;56050;55.558;-4.644;2022-12-18T07:18:09;101215.44;;;5.98;70.44
64853;BME280;56050;55.558;-4.644;2022-12-18T07:20:35;101221.03;;;5.93;70.38
64853;BME280;56050;55.558;-4.644;2022-12-18T07:23:03;101222.13;;;5.91;70.55
64853;BME280;56050;55.558;-4.644;2022-12-18T07:25:33;101228.94;;;5.89;70.54
64853;BME280;56050;55.558;-4.644;2022-12-18T07:27:59;101229.31;;;5.87;70.49
64853;BME280;56050;55.558;-4.644;2022-12-18T07:30:24;101228.16;;;5.88;70.50
64853;BME280;56050;55.558;-4.644;2022-12-18T07:32:50;101226.28;;;5.89;70.50
64853;BME280;56050;55.558;-4.644;2022-12-18T07:35:15;101222.41;;;5.86;70.38
64853;BME280;56050;55.558;-4.644;2022-12-18T07:37:40;101228.16;;;5.88;70.35
64853;BME280;56050;55.558;-4.644;2022-12-18T07:40:06;101216.59;;;5.84;70.19
64853;BME280;56050;55.558;-4.644;2022-12-18T07:42:32;101211.25;;;5.84;69.97
64853;BME280;56050;55.558;-4.644;2022-12-18T07:45:01;101213.81;;;5.81;70.06
64853;BME280;56050;55.558;-4.644;2022-12-18T07:47:27;101216.84;;;5.79;69.75
64853;BME280;56050;55.558;-4.644;2022-12-18T07:49:53;101214.16;;;5.79;69.72
64853;BME280;56050;55.558;-4.644;2022-12-18T07:52:18;101208.81;;;5.79;69.75
64853;BME280;56050;55.558;-4.644;2022-12-18T07:54:43;101214.50;;;5.78;69.55
64853;BME280;56050;55.558;-4.644;2022-12-18T07:57:09;101203.00;;;5.77;69.55
64853;BME280;56050;55.558;-4.644;2022-12-18T07:59:34;101199.91;;;5.75;69.25
64853;BME280;56050;55.558;-4.644;2022-12-18T08:02:00;101196.03;;;5.73;69.11
64853;BME280;56050;55.558;-4.644;2022-12-18T08:04:26;101193.72;;;5.71;69.02
64853;BME280;56050;55.558;-4.644;2022-12-18T08:06:51;101190.59;;;5.69;68.90
64853;BME280;56050;55.558;-4.644;2022-12-18T08:09:17;101184.81;;;5.67;68.66
64853;BME280;56050;55.558;-4.644;2022-12-18T08:11:42;101177.47;;;5.64;68.73
64853;BME280;56050;55.558;-4.644;2022-12-18T08:14:08;101185.38;;;5.61;68.33
64853;BME280;56050;55.558;-4.644;2022-12-18T08:16:35;101174.16;;;5.55;68.62
64853;BME280;56050;55.558;-4.644;2022-12-18T08:19:00;101167.59;;;5.53;68.46
64853;BME280;56050;55.558;-4.644;2022-12-18T08:21:28;101169.06;;;5.50;68.36
64853;BME280;56050;55.558;-4.644;2022-12-18T08:23:56;101163.28;;;5.48;68.46
64853;BME280;56050;55.558;-4.644;2022-12-18T08:26:23;101168.63;;;5.48;68.55
64853;BME280;56050;55.558;-4.644;2022-12-18T08:28:50;101164.84;;;5.49;68.41
64853;BME280;56050;55.558;-4.644;2022-12-18T08:31:16;101162.94;;;5.50;68.36
64853;BME280;56050;55.558;-4.644;2022-12-18T08:33:41;101154.16;;;5.49;68.26
64853;BME280;56050;55.558;-4.644;2022-12-18T08:36:08;101148.81;;;5.49;68.41
64853;BME280;56050;55.558;-4.644;2022-12-18T08:38:34;101132.00;;;5.49;68.45
64853;BME280;56050;55.558;-4.644;2022-12-18T08:43:26;101127.00;;;5.47;68.34
64853;BME280;56050;55.558;-4.644;2022-12-18T08:46:10;101110.53;;;5.45;68.01
64853;BME280;56050;55.558;-4.644;2022-12-18T08:48:36;101109.69;;;5.41;68.00
64853;BME280;56050;55.558;-4.644;2022-12-18T08:51:01;101117.34;;;5.43;67.91
64853;BME280;56050;55.558;-4.644;2022-12-18T08:53:27;101103.56;;;5.41;68.06
64853;BME280;56050;55.558;-4.644;2022-12-18T08:55:53;101093.66;;;5.41;67.89
64853;BME280;56050;55.558;-4.644;2022-12-18T08:58:18;101103.63;;;5.44;67.87
64853;BME280;56050;55.558;-4.644;2022-12-18T09:00:44;101114.31;;;5.44;67.84
64853;BME280;56050;55.558;-4.644;2022-12-18T09:03:13;101117.44;;;5.46;67.76
64853;BME280;56050;55.558;-4.644;2022-12-18T09:05:39;101114.09;;;5.49;67.95
64853;BME280;56050;55.558;-4.644;2022-12-18T09:08:04;101114.94;;;5.53;67.88
64853;BME280;56050;55.558;-4.644;2022-12-18T09:10:31;101121.97;;;5.58;67.65
64853;BME280;56050;55.558;-4.644;2022-12-18T09:12:57;101121.59;;;5.59;67.65
64853;BME280;56050;55.558;-4.644;2022-12-18T09:15:22;101114.91;;;5.65;67.77
64853;BME280;56050;55.558;-4.644;2022-12-18T09:17:47;101107.31;;;5.67;67.69
64853;BME280;56050;55.558;-4.644;2022-12-18T09:20:15;101093.94;;;5.67;67.53
64853;BME280;56050;55.558;-4.644;2022-12-18T09:22:40;101095.94;;;5.70;67.50
64853;BME280;56050;55.558;-4.644;2022-12-18T09:25:06;101093.25;;;5.70;67.48
64853;BME280;56050;55.558;-4.644;2022-12-18T09:27:34;101085.25;;;5.70;67.31
64853;BME280;56050;55.558;-4.644;2022-12-18T09:30:00;101085.25;;;5.70;67.38
64853;BME280;56050;55.558;-4.644;2022-12-18T09:32:25;101071.09;;;5.70;67.31
64853;BME280;56050;55.558;-4.644;2022-12-18T09:34:51;101066.53;;;5.70;67.22
64853;BME280;56050;55.558;-4.644;2022-12-18T09:37:16;101058.50;;;5.70;67.30
64853;BME280;56050;55.558;-4.644;2022-12-18T09:39:42;101057.41;;;5.71;67.28
64853;BME280;56050;55.558;-4.644;2022-12-18T09:42:09;101050.22;;;5.75;67.20
64853;BME280;56050;55.558;-4.644;2022-12-18T09:44:45;101039.53;;;5.75;67.21
64853;BME280;56050;55.558;-4.644;2022-12-18T09:47:37;101026.16;;;5.75;67.31
64853;BME280;56050;55.558;-4.644;2022-12-18T09:50:15;101023.91;;;5.77;67.06
64853;BME280;56050;55.558;-4.644;2022-12-18T09:52:48;101023.16;;;5.77;66.95
64853;BME280;56050;55.558;-4.644;2022-12-18T09:57:56;101009.72;;;5.73;67.18
64853;BME280;56050;55.558;-4.644;2022-12-18T10:00:25;101014.28;;;5.73;66.87
64853;BME280;56050;55.558;-4.644;2022-12-18T10:02:53;100997.13;;;5.74;66.88
64853;BME280;56050;55.558;-4.644;2022-12-18T10:19:52;100953.00;;;5.49;65.47
64853;BME280;56050;55.558;-4.644;2022-12-18T10:25:24;100937.56;;;5.42;65.18
64853;BME280;56050;55.558;-4.644;2022-12-18T10:27:56;100921.91;;;5.41;64.86
64853;BME280;56050;55.558;-4.644;2022-12-18T10:30:24;100917.25;;;5.38;64.25
64853;BME280;56050;55.558;-4.644;2022-12-18T10:32:50;100916.72;;;5.32;63.67
64853;BME280;56050;55.558;-4.644;2022-12-18T10:35:26;100910.88;;;5.26;62.32
64853;BME280;56050;55.558;-4.644;2022-12-18T10:43:32;100889.31;;;5.19;60.29
64853;BME280;56050;55.558;-4.644;2022-12-18T10:51:00;100865.38;;;5.23;58.54
64853;BME280;56050;55.558;-4.644;2022-12-18T10:53:26;100879.63;;;5.27;58.18
64853;BME280;56050;55.558;-4.644;2022-12-18T10:55:55;100872.81;;;5.29;58.03
64853;BME280;56050;55.558;-4.644;2022-12-18T11:03:39;100880.13;;;5.32;57.82
64853;BME280;56050;55.558;-4.644;2022-12-18T11:06:06;100873.63;;;5.33;57.65
64853;BME280;56050;55.558;-4.644;2022-12-18T11:08:33;100877.44;;;5.32;57.30
64853;BME280;56050;55.558;-4.644;2022-12-18T11:10:58;100876.31;;;5.33;57.45
64853;BME280;56050;55.558;-4.644;2022-12-18T11:13:26;100863.75;;;5.34;56.85
64853;BME280;56050;55.558;-4.644;2022-12-18T11:15:53;100864.44;;;5.31;56.71
64853;BME280;56050;55.558;-4.644;2022-12-18T11:18:20;100849.97;;;5.32;57.06
64853;BME280;56050;55.558;-4.644;2022-12-18T11:20:54;100855.31;;;5.32;56.99
64853;BME280;56050;55.558;-4.644;2022-12-18T11:23:21;100849.97;;;5.32;57.11
64853;BME280;56050;55.558;-4.644;2022-12-18T11:25:55;100853.75;;;5.31;56.93
64853;BME280;56050;55.558;-4.644;2022-12-18T11:28:25;100850.75;;;5.32;57.00
64853;BME280;56050;55.558;-4.644;2022-12-18T11:31:18;100830.91;;;5.33;57.23
64853;BME280;56050;55.558;-4.644;2022-12-18T11:36:20;100829.19;;;5.41;57.08
64853;BME280;56050;55.558;-4.644;2022-12-18T11:38:48;100825.03;;;5.44;57.27
64853;BME280;56050;55.558;-4.644;2022-12-18T11:41:26;100817.09;;;5.47;57.30
64853;BME280;56050;55.558;-4.644;2022-12-18T11:44:35;100811.03;;;5.50;57.46
64853;BME280;56050;55.558;-4.644;2022-12-18T11:50:00;100786.03;;;5.58;57.64
64853;BME280;56050;55.558;-4.644;2022-12-18T11:52:31;100785.31;;;5.61;57.69
64853;BME280;56050;55.558;-4.644;2022-12-18T11:55:01;100777.75;;;5.63;57.83
64853;BME280;56050;55.558;-4.644;2022-12-18T12:00:17;100768.31;;;5.69;58.13
64853;BME280;56050;55.558;-4.644;2022-12-18T12:24:09;100691.97;;;6.10;58.52
64853;BME280;56050;55.558;-4.644;2022-12-18T12:35:52;100642.28;;;6.09;58.59
64853;BME280;56050;55.558;-4.644;2022-12-18T12:38:30;100631.22;;;6.11;58.58
64853;BME280;56050;55.558;-4.644;2022-12-18T12:41:01;100624.75;;;6.12;58.73
64853;BME280;56050;55.558;-4.644;2022-12-18T12:43:44;100615.63;;;6.13;58.89
64853;BME280;56050;55.558;-4.644;2022-12-18T12:46:13;100607.63;;;6.16;59.11
64853;BME280;56050;55.558;-4.644;2022-12-18T12:48:44;100612.25;;;6.19;59.10
64853;BME280;56050;55.558;-4.644;2022-12-18T12:51:18;100611.91;;;6.21;59.37
64853;BME280;56050;55.558;-4.644;2022-12-18T12:53:45;100603.19;;;6.24;59.15
64853;BME280;56050;55.558;-4.644;2022-12-18T12:56:11;100595.19;;;6.27;59.24
64853;BME280;56050;55.558;-4.644;2022-12-18T13:04:12;100573.78;;;6.27;59.48
64853;BME280;56050;55.558;-4.644;2022-12-18T13:06:50;100553.16;;;6.28;59.48
64853;BME280;56050;55.558;-4.644;2022-12-18T13:09:18;100543.25;;;6.28;59.62
64853;BME280;56050;55.558;-4.644;2022-12-18T13:11:46;100549.00;;;6.30;59.43
64853;BME280;56050;55.558;-4.644;2022-12-18T13:14:33;100541.34;;;6.29;59.51
64853;BME280;56050;55.558;-4.644;2022-12-18T13:19:51;100524.47;;;6.25;59.69
64853;BME280;56050;55.558;-4.644;2022-12-18T13:22:22;100518.72;;;6.23;59.75
64853;BME280;56050;55.558;-4.644;2022-12-18T13:24:48;100512.59;;;6.22;59.55
64853;BME280;56050;55.558;-4.644;2022-12-18T13:30:00;100512.13;;;6.17;59.50
64853;BME280;56050;55.558;-4.644;2022-12-18T13:32:25;100500.66;;;6.16;59.63
64853;BME280;56050;55.558;-4.644;2022-12-18T13:37:53;100496.31;;;6.05;59.69
64853;BME280;56050;55.558;-4.644;2022-12-18T13:45:50;100465.97;;;5.94;59.81
64853;BME280;56050;55.558;-4.644;2022-12-18T13:48:25;100457.19;;;5.93;60.06
64853;BME280;56050;55.558;-4.644;2022-12-18T13:53:32;100443.75;;;5.89;60.07
64853;BME280;56050;55.558;-4.644;2022-12-18T13:55:59;100444.88;;;5.88;60.02
64853;BME280;56050;55.558;-4.644;2022-12-18T13:58:24;100441.09;;;5.89;60.07
64853;BME280;56050;55.558;-4.644;2022-12-18T14:00:50;100441.84;;;5.90;60.22
64853;BME280;56050;55.558;-4.644;2022-12-18T14:05:45;100426.53;;;5.87;60.13
64853;BME280;56050;55.558;-4.644;2022-12-18T14:08:18;100423.47;;;5.85;60.27
64853;BME280;56050;55.558;-4.644;2022-12-18T14:10:45;100422.25;;;5.82;60.25
64853;BME280;56050;55.558;-4.644;2022-12-18T14:13:19;100404.97;;;5.76;60.12
64853;BME280;56050;55.558;-4.644;2022-12-18T14:15:47;100409.50;;;5.72;60.34
64853;BME280;56050;55.558;-4.644;2022-12-18T14:18:34;100392.28;;;5.70;60.33
64853;BME280;56050;55.558;-4.644;2022-12-18T14:21:04;100396.84;;;5.69;60.30
64853;BME280;56050;55.558;-4.644;2022-12-18T14:23:34;100372.78;;;5.66;60.37
64853;BME280;56050;55.558;-4.644;2022-12-18T14:26:02;100371.59;;;5.63;60.41
64853;BME280;56050;55.558;-4.644;2022-12-18T14:28:28;100364.31;;;5.64;60.57
64853;BME280;56050;55.558;-4.644;2022-12-18T14:30:53;100363.97;;;5.65;60.46
64853;BME280;56050;55.558;-4.644;2022-12-18T14:33:25;100368.94;;;5.63;60.46
64853;BME280;56050;55.558;-4.644;2022-12-18T14:40:51;100350.09;;;5.56;60.67
64853;BME280;56050;55.558;-4.644;2022-12-18T14:43:20;100340.19;;;5.57;60.78
64853;BME280;56050;55.558;-4.644;2022-12-18T14:45:46;100331.81;;;5.58;60.87
64853;BME280;56050;55.558;-4.644;2022-12-18T14:48:39;100321.50;;;5.57;60.89
64853;BME280;56050;55.558;-4.644;2022-12-18T14:51:15;100327.25;;;5.59;61.03
64853;BME280;56050;55.558;-4.644;2022-12-18T14:53:44;100323.03;;;5.58;61.18
64853;BME280;56050;55.558;-4.644;2022-12-18T14:56:25;100313.09;;;5.58;61.07
64853;BME280;56050;55.558;-4.644;2022-12-18T14:58:55;100309.69;;;5.58;61.06
64853;BME280;56050;55.558;-4.644;2022-12-18T15:01:24;100311.97;;;5.59;61.17
64853;BME280;56050;55.558;-4.644;2022-12-18T15:03:52;100310.88;;;5.60;61.30